Alpnach Air Base LSMA

Flugplatz Daten

Name: Alpnach Air Base

Ident: LSMA

Lat: 46,94390106

Long: 8,284170151

Platzhöhe: 1460 ft

IataCode:

City: Alpnach

Metar

2021/10/20 13:20
LSMA 201320Z VRB01KT CAVOK 18/08 Q1017 RMK BLU

Taf

2021/10/20 10:00
TAF LSMA 200925Z 2010/2116 06004KT CAVOK PROB30 2013/2018 20010KT
BECMG 2015/2018 9999 SCT110
TEMPO 2023/2108 9999 BKN070
TEMPO 2102/2107 RA PROB30
TEMPO 2105/2108 36015G28KT
Gewünschte Webcam nicht vorhanden? Dann fügen Sie eine hinzu. Sie wird dann so schnell wie möglich freigeschaltet
Url: Title: